Time;durP1;ratioP1;P1;durP2;ratioP2;P2;SDS_P1;SDS_P2;PMS_P1;PMS_P2;Temp;Humidity;BMP_temperature;BMP_pressure;BME280_temperature;BME280_humidity;BME280_pressure;Samples;Min_cycle;Max_cycle;Signal;HPM_P1;HPM_P2
2023/04/02 00:01:05;;;;;;;0.57;0.38;;;8.50;99.90;;;;;;5012608;28;20027;-75
2023/04/02 00:03:43;;;;;;;0.73;0.40;;;8.40;99.90;;;;;;4994823;28;20030;-74
2023/04/02 00:06:33;;;;;;;0.60;0.30;;;8.40;99.90;;;;;;4995434;28;20109;-72
2023/04/02 00:09:20;;;;;;;1.00;0.35;;;8.40;99.90;;;;;;4994344;28;20033;-75
2023/04/02 00:11:48;;;;;;;0.47;0.30;;;8.40;99.90;;;;;;4993398;28;20046;-72
2023/04/02 00:14:34;;;;;;;0.68;0.30;;;8.40;99.90;;;;;;4994306;28;20033;-74
2023/04/02 00:17:05;;;;;;;0.60;0.30;;;8.30;99.90;;;;;;4995770;28;20035;-74
2023/04/02 00:19:44;;;;;;;0.38;0.20;;;8.30;99.90;;;;;;4995576;28;20027;-72
2023/04/02 00:22:20;;;;;;;1.55;0.43;;;8.30;99.90;;;;;;4995714;28;20471;-74
2023/04/02 00:24:48;;;;;;;1.38;0.38;;;8.30;99.90;;;;;;4993951;28;20487;-74
2023/04/02 00:27:20;;;;;;;1.40;0.30;;;8.20;99.90;;;;;;4995114;28;20026;-73
2023/04/02 00:29:54;;;;;;;1.10;0.40;;;8.20;99.90;;;;;;4995288;28;20058;-73
2023/04/02 00:32:34;;;;;;;0.30;0.22;;;8.20;99.90;;;;;;4995976;28;20077;-72
2023/04/02 00:35:01;;;;;;;2.10;0.20;;;8.20;99.90;;;;;;4992270;28;20044;-74
2023/04/02 00:37:37;;;;;;;2.45;1.13;;;8.20;99.90;;;;;;4990218;28;20027;-72
2023/04/02 00:40:27;;;;;;;1.58;0.50;;;8.10;99.90;;;;;;4988896;28;20133;-75
2023/04/02 00:43:03;;;;;;;1.88;0.30;;;8.10;99.90;;;;;;4994738;28;20034;-74
2023/04/02 00:45:31;;;;;;;1.73;0.73;;;8.10;99.90;;;;;;4993640;28;20049;-74
2023/04/02 00:48:12;;;;;;;0.90;0.40;;;8.10;99.90;;;;;;4993249;28;20121;-74
2023/04/02 00:50:41;;;;;;;1.77;0.40;;;8.10;99.90;;;;;;4994384;28;20073;-72
2023/04/02 00:53:39;;;;;;;1.13;0.50;;;8.10;99.90;;;;;;4986998;28;20069;-72
2023/04/02 00:56:15;;;;;;;2.03;0.40;;;8.00;99.90;;;;;;4989292;28;20034;-74
2023/04/02 00:58:52;;;;;;;2.25;0.47;;;8.00;99.90;;;;;;4994307;28;20036;-72
2023/04/02 01:01:21;;;;;;;0.75;0.52;;;8.00;99.90;;;;;;4988072;28;20527;-74
2023/04/02 01:04:01;;;;;;;1.92;0.60;;;8.00;99.90;;;;;;4993503;28;20078;-71
2023/04/02 01:06:34;;;;;;;1.35;0.38;;;8.00;99.90;;;;;;5002362;28;20027;-72
2023/04/02 01:09:44;;;;;;;0.93;0.50;;;8.00;99.90;;;;;;4995913;28;20027;-75
2023/04/02 01:12:52;;;;;;;0.85;0.40;;;7.90;99.90;;;;;;4998942;28;20112;-73
2023/04/02 01:15:32;;;;;;;1.08;0.50;;;7.90;99.90;;;;;;4978909;28;20062;-73
2023/04/02 01:18:05;;;;;;;1.02;0.43;;;7.90;99.90;;;;;;4994103;28;20030;-73
2023/04/02 01:20:33;;;;;;;1.58;0.63;;;7.80;99.90;;;;;;4992269;28;20034;-72
2023/04/02 01:23:46;;;;;;;1.98;0.60;;;7.80;99.90;;;;;;4997268;28;20041;-74
2023/04/02 01:26:38;;;;;;;1.25;0.43;;;7.80;99.90;;;;;;4993675;28;20050;-72
2023/04/02 01:29:25;;;;;;;1.30;0.50;;;7.80;99.90;;;;;;4994111;28;20454;-73
2023/04/02 01:32:07;;;;;;;0.95;0.63;;;7.70;99.90;;;;;;4993581;28;20502;-73
2023/04/02 01:34:35;;;;;;;3.05;0.90;;;7.70;99.90;;;;;;4993715;28;20430;-73
2023/04/02 01:37:26;;;;;;;1.90;0.73;;;7.70;99.90;;;;;;4990223;28;20031;-73
2023/04/02 01:40:35;;;;;;;1.13;0.70;;;7.70;99.90;;;;;;4989794;28;20027;-74
2023/04/02 01:43:24;;;;;;;2.58;0.70;;;7.70;99.90;;;;;;4994724;28;20026;-73
2023/04/02 01:45:52;;;;;;;2.53;0.80;;;7.60;99.90;;;;;;4993867;28;20105;-73
2023/04/02 01:48:23;;;;;;;1.42;0.75;;;7.60;99.90;;;;;;4996691;28;20030;-74
2023/04/02 01:50:51;;;;;;;1.50;0.65;;;7.60;99.90;;;;;;4995688;28;20360;-72
2023/04/02 01:53:20;;;;;;;1.58;0.77;;;7.60;99.90;;;;;;5008568;28;20054;-72
2023/04/02 01:55:49;;;;;;;2.20;0.90;;;7.50;99.90;;;;;;4994951;28;20018;-74
2023/04/02 01:58:35;;;;;;;1.95;0.90;;;7.60;99.90;;;;;;4994527;28;20768;-73
2023/04/02 02:01:17;;;;;;;2.47;0.70;;;7.60;99.90;;;;;;4993888;28;20030;-73
2023/04/02 02:03:44;;;;;;;1.30;0.80;;;7.60;99.90;;;;;;4991294;28;20026;-72
2023/04/02 02:06:15;;;;;;;1.63;0.55;;;7.60;99.90;;;;;;4994576;28;20167;-73
2023/04/02 02:08:46;;;;;;;1.55;0.90;;;7.60;99.90;;;;;;4987257;28;20429;-74
2023/04/02 02:11:18;;;;;;;1.73;0.90;;;7.60;99.90;;;;;;4998120;28;20026;-73
2023/04/02 02:13:53;;;;;;;4.07;1.00;;;7.70;99.90;;;;;;4986486;28;20034;-73
2023/04/02 02:16:23;;;;;;;4.07;1.23;;;7.70;99.90;;;;;;4989975;28;20033;-74
2023/04/02 02:19:35;;;;;;;2.28;1.00;;;7.70;99.90;;;;;;4992203;28;20130;-73
2023/04/02 02:22:20;;;;;;;2.75;0.80;;;7.70;99.90;;;;;;4989507;28;20522;-74
2023/04/02 02:24:46;;;;;;;1.08;0.60;;;7.80;99.90;;;;;;4991208;28;20222;-74
2023/04/02 02:27:26;;;;;;;1.20;0.60;;;7.70;99.90;;;;;;4994483;28;20022;-73
2023/04/02 02:30:27;;;;;;;1.23;0.70;;;7.70;99.90;;;;;;4986041;28;20033;-74
2023/04/02 02:33:22;;;;;;;2.35;0.95;;;7.80;99.90;;;;;;4996408;28;20387;-74
2023/04/02 02:35:54;;;;;;;1.27;0.60;;;7.70;99.90;;;;;;4994871;28;20485;-74
2023/04/02 02:38:31;;;;;;;1.55;0.70;;;7.80;99.90;;;;;;4992851;28;20065;-74
2023/04/02 02:41:09;;;;;;;1.80;0.73;;;7.80;99.90;;;;;;4992487;28;20495;-74
2023/04/02 02:44:24;;;;;;;2.75;0.85;;;7.70;99.90;;;;;;4996920;28;20030;-74
2023/04/02 02:47:10;;;;;;;3.17;0.88;;;7.80;99.90;;;;;;4986723;28;20046;-74
2023/04/02 02:49:40;;;;;;;2.42;0.70;;;7.80;99.90;;;;;;4994323;28;20014;-73
2023/04/02 02:52:15;;;;;;;2.65;1.25;;;7.80;99.90;;;;;;4995236;28;20026;-74
2023/04/02 02:54:50;;;;;;;1.48;0.60;;;7.80;99.90;;;;;;4993857;28;20026;-74
2023/04/02 02:57:26;;;;;;;2.25;0.82;;;7.80;99.90;;;;;;4986410;28;20456;-72
2023/04/02 03:00:10;;;;;;;2.10;1.17;;;7.90;99.90;;;;;;4989407;28;20385;-73
2023/04/02 03:02:37;;;;;;;;;;;7.90;99.90;;;;;;4992486;28;20019;-73
2023/04/02 03:05:04;;;;;;;2.72;0.98;;;7.90;99.90;;;;;;4979257;28;20007;-73
2023/04/02 03:07:37;;;;;;;2.33;0.80;;;7.90;99.90;;;;;;4999302;28;20399;-73
2023/04/02 03:10:05;;;;;;;2.53;0.90;;;8.00;99.90;;;;;;4992021;28;20113;-73
2023/04/02 03:12:50;;;;;;;2.60;0.85;;;8.00;99.90;;;;;;4995690;28;20076;-74
2023/04/02 03:15:26;;;;;;;1.90;0.70;;;8.00;99.90;;;;;;4992451;28;20030;-74
2023/04/02 03:18:13;;;;;;;2.45;1.00;;;8.00;99.90;;;;;;4999494;28;20084;-73
2023/04/02 03:21:26;;;;;;;4.05;0.68;;;8.00;99.90;;;;;;4995037;28;20033;-74
2023/04/02 03:24:02;;;;;;;1.42;0.70;;;8.10;99.90;;;;;;4976443;28;20038;-73
2023/04/02 03:26:49;;;;;;;1.80;0.70;;;8.10;99.90;;;;;;5002095;28;20455;-73
2023/04/02 03:29:31;;;;;;;1.02;0.40;;;8.10;99.90;;;;;;4991132;28;20019;-72
2023/04/02 03:32:15;;;;;;;3.33;0.73;;;8.10;99.90;;;;;;4991645;28;20504;-73
2023/04/02 03:35:19;;;;;;;2.67;0.70;;;8.10;99.90;;;;;;4992719;28;20034;-72
2023/04/02 03:37:57;;;;;;;2.85;0.70;;;8.10;99.90;;;;;;4998781;28;20030;-73
2023/04/02 03:40:38;;;;;;;1.80;0.70;;;8.10;99.90;;;;;;4995763;28;20514;-74
2023/04/02 03:43:32;;;;;;;2.53;0.57;;;8.10;99.90;;;;;;4986170;28;20031;-73
2023/04/02 03:46:07;;;;;;;2.75;0.43;;;8.20;99.90;;;;;;4994357;28;20019;-73
2023/04/02 03:48:47;;;;;;;1.75;0.57;;;8.20;99.90;;;;;;4992285;28;20022;-76
2023/04/02 03:51:27;;;;;;;1.15;0.50;;;8.20;99.90;;;;;;4996723;28;20069;-74
2023/04/02 03:54:03;;;;;;;1.58;0.50;;;8.20;99.90;;;;;;4994703;28;20029;-74
2023/04/02 03:56:38;;;;;;;2.10;0.40;;;8.20;99.90;;;;;;4989924;28;20121;-73
2023/04/02 03:59:18;;;;;;;2.25;0.35;;;8.20;99.90;;;;;;4987448;28;20030;-73
2023/04/02 04:01:58;;;;;;;1.27;0.40;;;8.30;99.90;;;;;;4999612;28;20121;-73
2023/04/02 04:04:27;;;;;;;2.85;0.43;;;8.30;99.90;;;;;;4993993;28;20117;-72
2023/04/02 04:06:56;;;;;;;3.03;0.50;;;8.30;99.90;;;;;;4993393;28;20125;-73
2023/04/02 04:09:35;;;;;;;2.30;0.50;;;8.30;99.90;;;;;;4995147;28;20101;-73
2023/04/02 04:12:07;;;;;;;3.00;0.50;;;8.30;99.90;;;;;;5002365;23;20124;-79
2023/04/02 04:14:43;;;;;;;3.13;0.50;;;8.30;99.90;;;;;;4996020;28;20506;-78
2023/04/02 04:17:14;;;;;;;1.98;0.30;;;8.30;99.90;;;;;;4993040;28;20042;-79
2023/04/02 04:19:53;;;;;;;1.45;0.43;;;8.30;99.90;;;;;;5007247;28;20471;-78
2023/04/02 04:22:28;;;;;;;0.60;0.40;;;8.30;99.90;;;;;;5010246;28;20086;-78
2023/04/02 04:25:05;;;;;;;1.65;0.50;;;8.30;99.90;;;;;;5007206;28;20465;-77
2023/04/02 04:27:44;;;;;;;1.35;0.65;;;8.30;99.90;;;;;;5008632;28;20044;-79
2023/04/02 04:30:40;;;;;;;0.52;0.30;;;8.40;99.90;;;;;;5008867;28;20037;-78
2023/04/02 04:33:15;;;;;;;0.35;0.30;;;8.40;99.90;;;;;;5007692;28;20502;-76
2023/04/02 04:35:47;;;;;;;0.57;0.35;;;8.40;99.90;;;;;;5010509;28;20037;-78
2023/04/02 04:38:26;;;;;;;3.00;0.60;;;8.40;99.90;;;;;;5006060;28;20551;-78
2023/04/02 04:40:55;;;;;;;2.60;0.90;;;8.40;99.90;;;;;;5012692;28;20095;-79
2023/04/02 04:43:36;;;;;;;2.03;0.55;;;8.40;99.90;;;;;;5009456;28;20138;-78
2023/04/02 04:46:26;;;;;;;3.40;0.50;;;8.40;99.90;;;;;;5007078;28;20455;-78
2023/04/02 04:49:14;;;;;;;1.35;0.50;;;8.40;99.90;;;;;;5009643;28;20383;-77
2023/04/02 04:52:06;;;;;;;1.45;0.50;;;8.40;99.90;;;;;;5009878;28;20105;-78
2023/04/02 04:54:37;;;;;;;0.80;0.30;;;8.40;99.90;;;;;;5013657;28;20042;-78
2023/04/02 04:57:04;;;;;;;3.72;0.73;;;8.40;99.90;;;;;;5006379;28;20115;-77
2023/04/02 04:59:44;;;;;;;0.90;0.40;;;8.30;99.90;;;;;;5013081;28;20060;-78
2023/04/02 05:02:30;;;;;;;1.35;0.60;;;8.30;99.90;;;;;;5007826;28;20667;-78
2023/04/02 05:04:55;;;;;;;1.35;0.50;;;8.30;99.90;;;;;;5009845;28;20033;-77
2023/04/02 05:07:29;;;;;;;1.80;0.70;;;8.30;99.90;;;;;;5010416;28;20474;-77
2023/04/02 05:10:07;;;;;;;1.52;0.63;;;8.30;99.90;;;;;;5010660;28;20029;-79
2023/04/02 05:12:35;;;;;;;2.67;0.68;;;8.30;99.90;;;;;;5006154;28;20041;-79
2023/04/02 05:15:22;;;;;;;2.88;0.80;;;8.30;99.90;;;;;;5008455;28;20033;-78
2023/04/02 05:17:51;;;;;;;1.95;0.68;;;8.30;99.90;;;;;;5005761;28;20025;-77
2023/04/02 05:20:28;;;;;;;1.33;0.60;;;8.30;99.90;;;;;;5012059;28;20033;-78
2023/04/02 05:23:19;;;;;;;1.67;0.70;;;8.30;99.90;;;;;;5011222;28;20073;-78
2023/04/02 05:26:01;;;;;;;1.83;0.70;;;8.30;99.90;;;;;;5010532;28;20525;-78
2023/04/02 05:28:42;;;;;;;1.48;0.98;;;8.30;99.90;;;;;;5002441;28;20380;-78
2023/04/02 05:31:14;;;;;;;1.55;0.98;;;8.30;99.90;;;;;;5008226;28;20484;-77
2023/04/02 05:33:46;;;;;;;1.75;0.70;;;8.30;99.90;;;;;;5011134;28;20026;-78
2023/04/02 05:36:25;;;;;;;2.28;1.20;;;8.30;99.90;;;;;;5009854;28;20529;-79
2023/04/02 05:38:52;;;;;;;3.30;0.60;;;8.30;99.90;;;;;;5005045;28;20030;-78
2023/04/02 05:41:31;;;;;;;1.63;0.68;;;8.30;99.90;;;;;;5010530;28;20591;-77
2023/04/02 05:44:11;;;;;;;3.75;0.68;;;8.30;99.90;;;;;;5010713;28;20034;-78
2023/04/02 05:46:49;;;;;;;1.85;0.80;;;8.30;99.90;;;;;;5009600;28;20393;-78
2023/04/02 05:49:31;;;;;;;1.90;0.85;;;8.30;99.90;;;;;;5007916;28;20026;-78
2023/04/02 05:52:02;;;;;;;3.15;0.80;;;8.30;99.90;;;;;;5006336;28;20025;-78
2023/04/02 05:54:52;;;;;;;1.58;0.90;;;8.30;99.90;;;;;;5004692;28;20555;-78
2023/04/02 05:57:24;;;;;;;2.22;1.00;;;8.30;99.90;;;;;;5012586;28;20512;-78
2023/04/02 05:59:56;;;;;;;1.73;0.70;;;8.30;99.90;;;;;;5006404;28;20030;-79
2023/04/02 06:02:32;;;;;;;2.90;1.08;;;8.40;99.90;;;;;;5010087;28;20022;-78
2023/04/02 06:05:15;;;;;;;3.47;1.15;;;8.40;99.90;;;;;;5009532;28;20502;-78
2023/04/02 06:07:51;;;;;;;2.67;1.10;;;8.40;99.90;;;;;;5007762;28;20018;-78
2023/04/02 06:10:23;;;;;;;2.65;0.93;;;8.40;99.90;;;;;;5007043;28;20034;-78
2023/04/02 06:13:02;;;;;;;3.17;0.93;;;8.40;99.90;;;;;;5010863;28;20034;-78
2023/04/02 06:15:29;;;;;;;5.10;1.23;;;8.40;99.90;;;;;;5005116;28;20022;-78
2023/04/02 06:18:00;;;;;;;3.58;1.60;;;8.50;99.90;;;;;;5011806;28;20048;-79
2023/04/02 06:20:26;;;;;;;3.50;1.15;;;8.50;99.90;;;;;;5009547;28;20018;-79
2023/04/02 06:23:03;;;;;;;3.17;1.10;;;8.60;99.90;;;;;;5004012;28;20583;-80
2023/04/02 06:25:58;;;;;;;2.63;1.13;;;8.50;99.90;;;;;;5002476;28;20042;-78
2023/04/02 06:28:30;;;;;;;3.67;1.30;;;8.60;99.90;;;;;;5005787;28;20042;-79
2023/04/02 06:31:06;;;;;;;2.20;1.17;;;8.60;99.90;;;;;;5009496;28;20022;-78
2023/04/02 06:33:32;;;;;;;1.85;1.25;;;8.60;99.90;;;;;;5009676;28;20139;-78
2023/04/02 06:35:59;;;;;;;2.03;1.30;;;8.70;99.90;;;;;;4999462;28;20108;-78
2023/04/02 06:38:28;;;;;;;3.35;1.40;;;8.70;99.90;;;;;;5006983;28;20034;-78
2023/04/02 06:40:58;;;;;;;4.20;1.70;;;8.70;99.90;;;;;;5003915;28;20116;-77
2023/04/02 06:43:41;;;;;;;2.90;1.33;;;8.70;99.90;;;;;;5005372;28;20022;-78
2023/04/02 06:46:18;;;;;;;4.38;1.08;;;8.70;99.90;;;;;;5010277;28;20520;-78
2023/04/02 06:48:46;;;;;;;1.60;0.95;;;8.80;99.90;;;;;;5006691;28;20033;-78
2023/04/02 06:51:15;;;;;;;3.30;1.17;;;8.80;99.90;;;;;;5002396;28;20022;-77
2023/04/02 06:53:47;;;;;;;2.90;1.50;;;8.80;99.90;;;;;;5011260;28;20025;-77
2023/04/02 06:56:30;;;;;;;3.42;1.30;;;8.80;99.90;;;;;;5003900;28;20654;-79
2023/04/02 06:58:57;;;;;;;4.15;1.27;;;8.90;99.90;;;;;;5008878;28;20050;-77
2023/04/02 07:01:26;;;;;;;4.03;1.10;;;8.90;99.90;;;;;;5002311;28;20036;-77
2023/04/02 07:03:53;;;;;;;2.83;1.27;;;8.90;99.90;;;;;;4995825;28;20030;-77
2023/04/02 07:06:20;;;;;;;4.15;1.25;;;9.00;99.90;;;;;;5005666;28;20546;-78
2023/04/02 07:08:46;;;;;;;1.80;0.85;;;9.00;99.90;;;;;;5005710;28;20446;-78
2023/04/02 07:11:20;;;;;;;2.72;1.02;;;9.00;99.90;;;;;;4999746;28;20038;-77
2023/04/02 07:13:46;;;;;;;2.05;1.00;;;9.10;99.90;;;;;;5007192;28;20019;-77
2023/04/02 07:16:19;;;;;;;3.30;0.98;;;9.10;99.90;;;;;;5005230;28;20033;-78
2023/04/02 07:18:45;;;;;;;4.88;2.10;;;9.20;99.90;;;;;;5019391;28;20502;-78
2023/04/02 07:21:11;;;;;;;2.50;1.20;;;9.30;99.90;;;;;;4997740;28;20044;-77
2023/04/02 07:23:37;;;;;;;2.28;1.27;;;9.30;99.90;;;;;;4995091;28;20030;-78
2023/04/02 07:26:05;;;;;;;4.22;1.05;;;9.40;99.90;;;;;;5007536;28;20044;-77
2023/04/02 07:28:31;;;;;;;2.55;1.00;;;9.40;99.90;;;;;;5003467;28;20022;-77
2023/04/02 07:30:57;;;;;;;1.42;0.70;;;9.50;99.90;;;;;;5002346;28;20088;-77
2023/04/02 07:33:25;;;;;;;2.10;0.77;;;9.60;99.90;;;;;;5005694;28;20386;-78
2023/04/02 07:35:53;;;;;;;1.58;0.90;;;9.60;99.90;;;;;;5004756;28;20486;-77
2023/04/02 07:38:19;;;;;;;2.03;0.70;;;9.60;99.90;;;;;;5005398;28;20096;-78
2023/04/02 07:40:45;;;;;;;3.50;0.93;;;9.70;99.90;;;;;;5005714;28;20998;-78
2023/04/02 07:43:10;;;;;;;1.55;0.60;;;9.80;99.90;;;;;;5004355;28;20463;-79
2023/04/02 07:45:36;;;;;;;1.27;0.60;;;9.80;99.90;;;;;;5007849;28;20395;-78
2023/04/02 07:48:07;;;;;;;1.30;0.50;;;9.80;99.90;;;;;;5006446;28;20317;-78
2023/04/02 07:50:32;;;;;;;3.75;0.50;;;9.80;99.90;;;;;;5006370;28;20027;-78
2023/04/02 07:52:58;;;;;;;1.70;0.70;;;9.90;99.90;;;;;;5010200;28;20026;-78
2023/04/02 07:55:24;;;;;;;1.15;0.73;;;9.90;99.90;;;;;;5008407;28;20026;-78
2023/04/02 07:57:53;;;;;;;0.52;0.35;;;10.00;99.90;;;;;;5009999;28;20391;-80
2023/04/02 08:00:19;;;;;;;1.77;0.73;;;10.00;99.90;;;;;;5006160;28;20038;-76
2023/04/02 08:02:45;;;;;;;1.88;0.40;;;10.10;99.90;;;;;;5000556;28;20096;-77
2023/04/02 08:05:11;;;;;;;2.90;1.00;;;10.20;99.90;;;;;;5007497;28;20068;-79
2023/04/02 08:07:38;;;;;;;2.50;1.63;;;10.20;99.90;;;;;;5002122;28;20123;-78
2023/04/02 08:10:05;;;;;;;1.73;1.02;;;10.30;99.90;;;;;;5003927;28;20041;-77
2023/04/02 08:12:30;;;;;;;1.90;0.90;;;10.40;99.90;;;;;;5005918;28;20026;-77
2023/04/02 08:14:56;;;;;;;1.63;0.60;;;10.40;99.90;;;;;;5007484;28;20038;-77
2023/04/02 08:17:22;;;;;;;1.13;0.55;;;10.40;99.90;;;;;;5008850;28;20526;-78
2023/04/02 08:19:48;;;;;;;0.60;0.38;;;10.50;99.90;;;;;;5010959;28;20065;-77
2023/04/02 08:22:13;;;;;;;1.65;0.63;;;10.50;99.90;;;;;;5009407;28;20076;-77
2023/04/02 08:24:39;;;;;;;1.67;0.60;;;10.50;99.90;;;;;;5010620;28;20508;-77
2023/04/02 08:27:06;;;;;;;1.42;0.50;;;10.50;99.90;;;;;;5013016;28;20025;-77
2023/04/02 08:29:32;;;;;;;0.90;0.50;;;10.60;99.90;;;;;;5004289;28;20094;-77
2023/04/02 08:32:00;;;;;;;1.10;0.60;;;10.50;99.90;;;;;;5008474;28;20506;-79
2023/04/02 08:34:27;;;;;;;1.15;0.70;;;10.50;99.90;;;;;;5008758;28;20026;-77
2023/04/02 08:36:57;;;;;;;1.13;0.50;;;10.60;99.90;;;;;;5002711;28;20092;-76
2023/04/02 08:39:25;;;;;;;1.10;0.60;;;10.50;99.90;;;;;;5007978;28;20092;-77
2023/04/02 08:42:03;;;;;;;3.33;1.10;;;10.50;99.90;;;;;;5008731;28;20042;-78
2023/04/02 08:44:48;;;;;;;1.25;0.38;;;10.50;99.90;;;;;;5006687;28;20432;-78
2023/04/02 08:47:16;;;;;;;1.77;0.80;;;10.50;99.90;;;;;;5006905;28;20021;-76
2023/04/02 08:49:47;;;;;;;1.27;0.40;;;10.50;99.90;;;;;;5013060;28;20029;-77
2023/04/02 08:52:23;;;;;;;1.73;0.40;;;10.60;99.90;;;;;;5008952;28;20505;-77
2023/04/02 08:54:49;;;;;;;2.53;1.25;;;10.60;99.90;;;;;;5005016;28;20033;-76
2023/04/02 08:57:53;;;;;;;2.13;1.30;;;10.60;99.90;;;;;;5028764;28;20053;-76
2023/04/02 09:00:34;;;;;;;1.55;0.52;;;10.60;99.90;;;;;;5008087;28;20045;-78
2023/04/02 09:03:13;;;;;;;1.35;0.40;;;10.60;99.90;;;;;;5008089;28;20022;-78
2023/04/02 09:05:42;;;;;;;4.75;1.77;;;10.60;99.90;;;;;;5008995;28;20731;-76
2023/04/02 09:08:18;;;;;;;1.85;0.80;;;10.60;99.90;;;;;;5022973;28;20567;-77
2023/04/02 09:10:57;;;;;;;0.50;0.47;;;10.60;99.90;;;;;;5014037;28;20518;-77
2023/04/02 09:13:26;;;;;;;1.80;0.50;;;10.60;99.90;;;;;;5009556;28;20026;-77
2023/04/02 09:16:08;;;;;;;0.98;0.38;;;10.60;99.90;;;;;;5005497;28;20022;-77
2023/04/02 09:18:35;;;;;;;1.98;0.65;;;10.60;99.90;;;;;;5010431;28;20034;-77
2023/04/02 09:21:07;;;;;;;1.23;0.60;;;10.70;99.90;;;;;;5010636;28;20224;-76
2023/04/02 09:23:32;;;;;;;1.00;0.52;;;10.80;99.90;;;;;;5009929;28;20025;-77
2023/04/02 09:25:58;;;;;;;1.00;0.43;;;10.80;99.90;;;;;;5011048;28;20045;-76
2023/04/02 09:28:25;;;;;;;1.10;0.50;;;10.90;99.90;;;;;;5012310;28;20490;-77
2023/04/02 09:31:03;;;;;;;2.03;0.70;;;10.90;99.90;;;;;;5007150;28;20018;-77
2023/04/02 09:33:53;;;;;;;0.55;0.40;;;10.90;99.90;;;;;;5008145;28;20018;-77
2023/04/02 09:36:25;;;;;;;1.33;0.60;;;10.90;99.90;;;;;;5009259;28;20513;-77
2023/04/02 09:39:05;;;;;;;1.13;0.57;;;11.00;99.90;;;;;;5008446;28;20532;-77
2023/04/02 09:41:34;;;;;;;0.60;0.50;;;11.00;99.90;;;;;;5009902;28;20026;-77
2023/04/02 09:44:21;;;;;;;2.08;0.98;;;11.10;99.90;;;;;;4969717;28;20041;-76
2023/04/02 09:47:02;;;;;;;1.60;0.80;;;11.20;99.90;;;;;;5013198;28;20509;-76
2023/04/02 09:49:32;;;;;;;2.17;0.70;;;11.20;99.90;;;;;;5024840;28;20038;-77
2023/04/02 09:52:27;;;;;;;1.10;0.82;;;11.30;99.90;;;;;;5013652;28;20037;-77
2023/04/02 09:55:14;;;;;;;0.68;0.40;;;11.20;99.90;;;;;;5009911;28;20022;-77
2023/04/02 09:57:41;;;;;;;0.60;0.50;;;11.30;99.90;;;;;;5007445;28;20022;-77
2023/04/02 10:00:21;;;;;;;1.52;0.50;;;11.30;99.90;;;;;;5036095;23;20050;-79
2023/04/02 10:03:03;;;;;;;0.82;0.43;;;11.30;99.90;;;;;;4989350;28;20123;-79
2023/04/02 10:05:30;;;;;;;0.88;0.40;;;11.40;99.90;;;;;;4990689;28;20061;-79
2023/04/02 10:08:18;;;;;;;0.57;0.40;;;11.40;99.90;;;;;;4994699;28;20033;-79
2023/04/02 10:10:48;;;;;;;0.68;0.40;;;11.40;99.90;;;;;;5011389;28;20057;-79
2023/04/02 10:13:45;;;;;;;0.98;0.52;;;11.50;99.90;;;;;;5015138;28;20706;-77
2023/04/02 10:16:19;;;;;;;0.93;0.55;;;11.50;99.90;;;;;;5015110;28;20041;-78
2023/04/02 10:18:47;;;;;;;;;;;11.50;99.90;;;;;;5008796;28;20108;-79
2023/04/02 10:21:18;;;;;;;0.90;0.50;;;11.50;99.90;;;;;;5019907;28;19917;-78
2023/04/02 10:23:44;;;;;;;0.90;0.47;;;11.50;99.90;;;;;;5019274;28;20053;-81
2023/04/02 10:26:15;;;;;;;0.60;0.40;;;11.50;99.90;;;;;;5017468;28;20026;-78
2023/04/02 10:28:54;;;;;;;0.50;0.40;;;11.40;99.90;;;;;;5009513;28;20047;-79
2023/04/02 10:31:24;;;;;;;0.28;0.20;;;11.50;99.90;;;;;;5012279;28;20077;-79
2023/04/02 10:33:52;;;;;;;1.10;0.52;;;11.40;99.90;;;;;;5010929;28;20036;-80
2023/04/02 10:36:32;;;;;;;3.17;1.20;;;11.40;99.90;;;;;;5009600;28;20034;-79
2023/04/02 10:39:12;;;;;;;2.80;1.00;;;11.50;99.90;;;;;;5012200;28;20051;-79
2023/04/02 10:41:50;;;;;;;0.63;0.47;;;11.60;99.90;;;;;;5011493;28;20461;-79
2023/04/02 10:44:40;;;;;;;1.00;0.57;;;11.70;99.90;;;;;;5013007;28;20060;-80
2023/04/02 10:47:32;;;;;;;1.27;1.10;;;11.70;99.90;;;;;;5012431;28;20088;-80
2023/04/02 10:50:26;;;;;;;0.52;0.30;;;11.70;99.90;;;;;;5026142;28;20038;-80
2023/04/02 10:52:58;;;;;;;3.85;1.65;;;11.70;99.90;;;;;;5009145;28;20033;-79
2023/04/02 10:55:30;;;;;;;2.95;0.50;;;11.70;99.90;;;;;;5006491;28;20048;-80
2023/04/02 10:58:03;;;;;;;1.13;0.57;;;11.80;99.90;;;;;;5005361;28;20026;-78
2023/04/02 11:00:37;;;;;;;1.80;1.08;;;11.80;99.90;;;;;;5026935;28;20025;-82
2023/04/02 11:03:13;;;;;;;1.35;0.70;;;11.80;99.90;;;;;;5010485;28;20034;-78
2023/04/02 11:05:45;;;;;;;1.25;0.70;;;12.00;99.90;;;;;;5005708;28;20459;-78
2023/04/02 11:08:10;;;;;;;1.17;0.70;;;12.10;99.90;;;;;;5011738;28;20490;-77
2023/04/02 11:10:42;;;;;;;2.30;0.43;;;12.20;99.90;;;;;;5013249;28;20085;-78
2023/04/02 11:13:21;;;;;;;1.50;0.50;;;12.20;99.90;;;;;;5013419;28;20216;-78
2023/04/02 11:15:47;;;;;;;0.57;0.40;;;12.30;99.90;;;;;;5010458;28;20037;-77
2023/04/02 11:18:37;;;;;;;0.60;0.40;;;12.30;99.90;;;;;;5018792;28;20033;-78
2023/04/02 11:21:27;;;;;;;0.60;0.30;;;12.40;99.90;;;;;;5017347;28;20152;-78
2023/04/02 11:24:00;;;;;;;0.68;0.50;;;12.40;99.90;;;;;;5013558;28;20033;-78
2023/04/02 11:26:46;;;;;;;1.80;1.00;;;12.50;99.90;;;;;;5014125;28;20048;-77
2023/04/02 11:29:26;;;;;;;0.73;0.50;;;12.60;99.90;;;;;;5029028;28;20054;-78
2023/04/02 11:32:32;;;;;;;0.85;0.52;;;12.80;99.90;;;;;;5013651;28;20034;-79
2023/04/02 11:35:01;;;;;;;0.90;0.50;;;13.00;99.90;;;;;;5015534;28;20111;-78
2023/04/02 11:37:44;;;;;;;0.73;0.47;;;13.00;99.90;;;;;;5017636;28;20034;-78
2023/04/02 11:40:09;;;;;;;0.20;0.20;;;13.10;99.90;;;;;;5013649;28;20023;-79
2023/04/02 11:42:44;;;;;;;0.60;0.22;;;13.20;99.90;;;;;;5023632;28;20040;-81
2023/04/02 11:45:22;;;;;;;0.77;0.30;;;13.30;99.90;;;;;;5024415;28;20148;-77
2023/04/02 11:47:59;;;;;;;0.90;0.50;;;13.30;99.90;;;;;;5032325;28;20026;-77
2023/04/02 11:50:30;;;;;;;1.00;0.55;;;13.30;99.90;;;;;;5032163;28;20056;-77
2023/04/02 11:53:17;;;;;;;0.55;0.38;;;13.40;99.90;;;;;;5025699;28;20077;-77
2023/04/02 11:56:16;;;;;;;1.50;0.70;;;13.40;99.90;;;;;;5026490;28;20041;-76
2023/04/02 11:58:53;;;;;;;1.50;0.70;;;13.50;99.90;;;;;;5032594;28;20010;-78
2023/04/02 12:01:34;;;;;;;0.90;0.40;;;13.50;99.90;;;;;;5034259;28;20089;-78
2023/04/02 12:04:38;;;;;;;0.68;0.40;;;13.60;99.90;;;;;;5031162;28;20049;-79
2023/04/02 12:07:16;;;;;;;0.70;0.47;;;13.60;99.90;;;;;;5023282;28;20052;-78
2023/04/02 12:09:52;;;;;;;3.47;0.70;;;13.50;99.90;;;;;;5021820;28;20014;-77
2023/04/02 12:12:33;;;;;;;0.73;0.50;;;13.50;99.90;;;;;;5023645;28;20037;-76
2023/04/02 12:14:59;;;;;;;0.45;0.35;;;13.50;99.90;;;;;;5021781;28;20030;-76
2023/04/02 12:17:38;;;;;;;2.25;0.98;;;13.40;99.90;;;;;;5017942;28;20029;-77
2023/04/02 12:20:08;;;;;;;1.95;0.70;;;13.30;99.90;;;;;;5017646;28;20108;-77
2023/04/02 12:22:39;;;;;;;1.98;0.50;;;13.30;99.90;;;;;;5008815;28;20033;-77
2023/04/02 12:25:31;;;;;;;1.17;0.60;;;13.10;99.90;;;;;;5011615;28;20025;-77
2023/04/02 12:28:08;;;;;;;2.95;0.90;;;12.90;99.90;;;;;;5000451;28;20042;-76
2023/04/02 12:30:37;;;;;;;2.08;0.60;;;12.80;99.90;;;;;;5008122;28;20029;-76
2023/04/02 12:33:16;;;;;;;0.98;0.55;;;12.70;99.90;;;;;;5019562;28;20022;-77
2023/04/02 12:35:42;;;;;;;2.22;0.65;;;12.50;99.90;;;;;;5012388;28;20033;-78
2023/04/02 12:38:20;;;;;;;1.25;0.73;;;12.40;99.90;;;;;;5019426;28;20046;-78
2023/04/02 12:41:02;;;;;;;3.45;0.82;;;12.20;99.90;;;;;;5007843;28;20022;-82
2023/04/02 12:43:36;;;;;;;0.90;0.43;;;12.10;99.90;;;;;;5015787;28;20018;-85
2023/04/02 12:46:06;;;;;;;0.93;0.30;;;12.00;99.90;;;;;;5015120;28;20433;-82
2023/04/02 12:48:33;;;;;;;1.77;0.50;;;11.80;99.90;;;;;;5000828;28;20141;-81
2023/04/02 12:51:00;;;;;;;0.93;0.40;;;11.80;99.90;;;;;;5002870;28;20672;-80
2023/04/02 12:53:40;;;;;;;0.77;0.47;;;11.70;99.90;;;;;;5012951;28;20048;-80
2023/04/02 12:56:07;;;;;;;1.10;0.40;;;11.70;99.90;;;;;;5011524;28;20026;-80
2023/04/02 12:58:41;;;;;;;0.95;0.50;;;11.60;99.90;;;;;;5009620;28;20035;-80
2023/04/02 13:01:17;;;;;;;1.00;0.40;;;11.60;99.90;;;;;;5013558;28;20030;-80
2023/04/02 13:03:58;;;;;;;2.25;0.57;;;11.50;99.90;;;;;;5013176;28;20025;-81
2023/04/02 13:06:25;;;;;;;1.63;0.40;;;11.50;99.90;;;;;;5011252;28;20481;-81
2023/04/02 13:08:52;;;;;;;1.25;0.50;;;11.50;99.90;;;;;;5013393;28;20540;-82
2023/04/02 13:11:19;;;;;;;0.68;0.40;;;11.50;99.90;;;;;;5011629;28;20025;-80
2023/04/02 13:13:47;;;;;;;1.23;0.45;;;11.50;99.90;;;;;;5009539;28;20053;-80
2023/04/02 13:16:19;;;;;;;1.75;0.30;;;11.40;99.90;;;;;;5018015;28;20036;-81
2023/04/02 13:18:47;;;;;;;0.63;0.50;;;11.40;99.90;;;;;;5016519;28;20110;-80
2023/04/02 13:21:16;;;;;;;1.58;0.35;;;11.40;99.90;;;;;;5011462;28;20109;-80
2023/04/02 13:23:42;;;;;;;1.08;0.40;;;11.40;99.90;;;;;;5031466;28;20481;-81
2023/04/02 13:26:17;;;;;;;0.60;0.60;;;11.40;99.90;;;;;;5014604;28;20034;-80
2023/04/02 13:29:14;;;;;;;0.82;0.45;;;11.50;99.90;;;;;;5017174;28;20511;-80
2023/04/02 13:31:40;;;;;;;1.02;0.50;;;11.50;99.90;;;;;;5019016;28;20475;-82
2023/04/02 13:34:05;;;;;;;0.60;0.40;;;11.60;99.90;;;;;;5017378;28;20049;-80
2023/04/02 13:36:31;;;;;;;1.40;0.45;;;11.60;99.90;;;;;;5016571;28;20022;-80
2023/04/02 13:38:57;;;;;;;2.85;0.60;;;11.80;99.90;;;;;;5023505;28;20034;-80